Time;durP1;ratioP1;P1;durP2;ratioP2;P2;SDS_P1;SDS_P2;PMS_P1;PMS_P2;Temp;Humidity;BMP_temperature;BMP_pressure;BME280_temperature;BME280_humidity;BME280_pressure;Samples;Min_cycle;Max_cycle;Signal;HPM_P1;HPM_P2
2022/09/26 00:00:12;;;;;;;3.20;2.90;;;13.70;99.90;;;;;;5056465;28;20524;-44
2022/09/26 00:02:41;;;;;;;3.63;2.63;;;13.70;99.90;;;;;;5056632;28;20472;-58
2022/09/26 00:05:10;;;;;;;7.40;3.40;;;13.70;99.90;;;;;;5057848;28;20471;-48
2022/09/26 00:07:37;;;;;;;3.13;2.40;;;13.80;99.90;;;;;;5056068;28;20448;-48
2022/09/26 00:10:04;;;;;;;4.47;2.80;;;13.80;99.90;;;;;;5055774;28;20512;-50
2022/09/26 00:12:32;;;;;;;6.43;2.50;;;13.80;99.90;;;;;;5052735;28;20499;-50
2022/09/26 00:14:59;;;;;;;2.87;2.40;;;13.80;99.90;;;;;;5036797;28;20464;-50
2022/09/26 00:17:26;;;;;;;4.00;3.60;;;13.80;99.90;;;;;;5036640;28;20461;-46
2022/09/26 00:19:53;;;;;;;3.27;2.00;;;13.80;99.90;;;;;;5036061;28;20461;-51
2022/09/26 00:22:21;;;;;;;2.43;1.83;;;13.80;99.90;;;;;;5035594;28;20785;-45
2022/09/26 00:24:48;;;;;;;2.27;1.90;;;13.80;99.90;;;;;;5036266;28;20484;-49
2022/09/26 00:27:15;;;;;;;2.50;1.73;;;13.80;99.90;;;;;;5036798;28;20443;-45
2022/09/26 00:29:43;;;;;;;3.10;2.20;;;13.80;99.90;;;;;;5037195;28;20441;-54
2022/09/26 00:32:12;;;;;;;4.43;2.20;;;13.80;99.90;;;;;;5036807;28;20714;-50
2022/09/26 00:34:40;;;;;;;8.23;2.30;;;13.80;99.90;;;;;;5036484;28;20475;-47
2022/09/26 00:37:07;;;;;;;3.57;2.27;;;13.80;99.90;;;;;;5035889;28;20469;-51
2022/09/26 00:39:34;;;;;;;1.70;1.60;;;13.80;99.90;;;;;;5035734;28;20493;-46
2022/09/26 00:42:00;;;;;;;4.07;1.97;;;13.80;99.90;;;;;;5035745;28;20468;-46
2022/09/26 00:44:49;;;;;;;2.70;1.60;;;13.70;99.90;;;;;;5036732;28;20488;-60
2022/09/26 00:47:23;;;;;;;2.33;1.90;;;13.70;99.90;;;;;;5036270;28;20437;-51
2022/09/26 00:49:52;;;;;;;4.27;2.07;;;13.60;99.90;;;;;;5036020;28;20452;-42
2022/09/26 00:52:24;;;;;;;3.93;1.83;;;13.60;99.90;;;;;;5036016;28;20465;-50
2022/09/26 00:54:54;;;;;;;3.20;2.07;;;13.60;99.90;;;;;;5035990;28;20440;-53
2022/09/26 00:57:25;;;;;;;3.57;2.17;;;13.60;99.90;;;;;;5035769;28;20928;-46
2022/09/26 00:59:59;;;;;;;3.80;2.00;;;13.50;99.90;;;;;;5035863;28;20470;-49
2022/09/26 01:02:27;;;;;;;5.00;2.37;;;13.50;99.90;;;;;;5052390;28;20776;-47
2022/09/26 01:04:55;;;;;;;3.00;1.97;;;13.50;99.90;;;;;;5055598;28;20424;-48
2022/09/26 01:07:28;;;;;;;2.80;2.10;;;13.50;99.90;;;;;;5055180;28;20440;-54
2022/09/26 01:09:56;;;;;;;2.37;1.70;;;13.40;99.90;;;;;;5055756;28;20416;-53
2022/09/26 01:12:23;;;;;;;2.23;1.60;;;13.40;99.90;;;;;;5055223;28;20479;-50
2022/09/26 01:14:52;;;;;;;2.37;1.97;;;13.40;99.90;;;;;;5055181;28;20420;-45
2022/09/26 01:17:24;;;;;;;4.23;2.10;;;13.40;99.90;;;;;;5055550;28;20486;-54
2022/09/26 01:20:07;;;;;;;2.47;1.80;;;13.40;99.90;;;;;;5055451;28;20516;-51
2022/09/26 01:23:15;;;;;;;2.00;1.80;;;13.40;99.90;;;;;;5055650;28;20468;-52
2022/09/26 01:26:08;;;;;;;3.10;2.30;;;13.40;99.90;;;;;;5055855;28;20945;-57
2022/09/26 01:28:55;;;;;;;2.03;1.70;;;13.40;99.90;;;;;;5055896;28;20460;-52
2022/09/26 01:31:35;;;;;;;4.80;2.70;;;13.40;99.90;;;;;;5055354;28;20472;-43
2022/09/26 01:34:10;;;;;;;5.57;2.10;;;13.40;99.90;;;;;;5056982;28;20463;-49
2022/09/26 01:36:55;;;;;;;3.30;1.90;;;13.40;99.90;;;;;;5059593;28;20475;-48
2022/09/26 01:39:44;;;;;;;4.03;2.10;;;13.30;99.90;;;;;;5059081;28;20436;-45
2022/09/26 01:42:29;;;;;;;6.63;2.30;;;13.20;99.90;;;;;;5058880;28;20472;-44
2022/09/26 01:45:08;;;;;;;2.90;2.30;;;13.30;99.90;;;;;;5059102;28;20478;-50
2022/09/26 01:47:46;;;;;;;3.00;1.80;;;13.30;99.90;;;;;;5059006;28;20582;-46
2022/09/26 01:50:21;;;;;;;3.13;2.10;;;13.30;99.90;;;;;;5059698;28;20941;-45
2022/09/26 01:52:54;;;;;;;2.87;2.00;;;13.20;99.90;;;;;;5058933;28;20529;-46
2022/09/26 01:55:29;;;;;;;2.83;1.80;;;13.20;99.90;;;;;;5058748;28;20431;-46
2022/09/26 01:58:03;;;;;;;2.37;2.00;;;13.20;99.90;;;;;;5046389;28;20539;-52
2022/09/26 02:00:31;;;;;;;2.10;1.70;;;13.20;99.90;;;;;;5039395;28;20882;-49
2022/09/26 02:03:01;;;;;;;2.90;1.87;;;13.20;99.90;;;;;;5039629;28;20429;-51
2022/09/26 02:05:32;;;;;;;3.20;1.93;;;13.30;99.90;;;;;;5042027;28;20466;-54
2022/09/26 02:08:03;;;;;;;2.70;1.80;;;13.30;99.90;;;;;;5059504;28;20460;-54
2022/09/26 02:10:38;;;;;;;4.20;2.10;;;13.40;99.90;;;;;;5058258;28;20519;-50
2022/09/26 02:13:12;;;;;;;2.60;1.97;;;13.40;99.90;;;;;;5057943;28;20464;-44
2022/09/26 02:15:42;;;;;;;3.93;1.83;;;13.40;99.90;;;;;;5058295;28;20468;-49
2022/09/26 02:18:17;;;;;;;7.73;2.17;;;13.40;99.90;;;;;;5059541;28;20472;-44
2022/09/26 02:20:48;;;;;;;2.57;1.77;;;13.40;99.90;;;;;;5057722;28;21193;-56
2022/09/26 02:23:21;;;;;;;3.20;2.20;;;13.50;99.90;;;;;;5059257;28;20424;-51
2022/09/26 02:25:48;;;;;;;3.23;2.30;;;13.40;99.90;;;;;;5046453;28;20461;-54
2022/09/26 02:28:15;;;;;;;3.00;1.90;;;13.50;99.90;;;;;;5038931;28;20802;-48
2022/09/26 02:30:46;;;;;;;10.20;2.00;;;13.40;99.90;;;;;;5039294;28;20451;-51
2022/09/26 02:33:18;;;;;;;3.97;2.30;;;13.40;99.90;;;;;;5039829;28;20523;-57
2022/09/26 02:35:54;;;;;;;3.07;2.03;;;13.40;99.90;;;;;;5039604;28;20757;-53
2022/09/26 02:38:25;;;;;;;2.10;1.83;;;13.40;99.90;;;;;;5038566;28;20528;-43
2022/09/26 02:41:01;;;;;;;3.03;2.00;;;13.40;99.90;;;;;;5038087;28;20441;-48
2022/09/26 02:43:52;;;;;;;5.93;2.67;;;13.30;99.90;;;;;;5038308;28;20425;-44
2022/09/26 02:46:50;;;;;;;3.37;2.10;;;13.30;99.90;;;;;;5037667;28;20437;-62
2022/09/26 02:49:35;;;;;;;2.43;2.20;;;13.30;99.90;;;;;;5017714;28;20441;-49
2022/09/26 02:52:20;;;;;;;2.23;1.93;;;13.30;99.90;;;;;;5037805;28;20431;-43
2022/09/26 02:54:58;;;;;;;3.70;1.70;;;13.30;99.90;;;;;;5037386;28;20588;-46
2022/09/26 02:57:40;;;;;;;2.60;1.80;;;13.30;99.90;;;;;;5038060;28;20441;-51
2022/09/26 03:00:16;;;;;;;1.87;1.73;;;13.20;99.90;;;;;;5037542;28;20488;-52
2022/09/26 03:02:53;;;;;;;9.00;2.47;;;13.30;99.90;;;;;;5038728;28;20413;-62
2022/09/26 03:05:24;;;;;;;3.27;2.13;;;13.20;99.90;;;;;;5038565;28;20492;-58
2022/09/26 03:08:03;;;;;;;3.50;2.47;;;13.30;99.90;;;;;;5038567;28;20464;-60
2022/09/26 03:10:32;;;;;;;2.30;2.00;;;13.30;99.90;;;;;;5038070;28;20448;-47
2022/09/26 03:13:04;;;;;;;5.63;2.00;;;13.30;99.90;;;;;;5037566;28;20541;-50
2022/09/26 03:15:33;;;;;;;7.10;2.57;;;13.30;99.90;;;;;;5037406;28;20456;-50
2022/09/26 03:18:03;;;;;;;4.40;2.00;;;13.30;99.90;;;;;;5037291;28;20533;-41
2022/09/26 03:20:31;;;;;;;4.33;3.00;;;13.30;99.90;;;;;;5038015;28;20508;-48
2022/09/26 03:22:58;;;;;;;2.33;2.00;;;13.30;99.90;;;;;;5057013;28;20500;-53
2022/09/26 03:25:31;;;;;;;5.63;2.47;;;13.30;99.90;;;;;;5057246;28;20476;-49
2022/09/26 03:28:01;;;;;;;2.37;2.03;;;13.30;99.90;;;;;;5057468;28;20472;-47
2022/09/26 03:30:29;;;;;;;6.63;2.63;;;13.30;99.90;;;;;;5057090;28;20468;-49
2022/09/26 03:32:56;;;;;;;3.30;1.80;;;13.20;99.90;;;;;;5057404;28;20444;-47
2022/09/26 03:35:23;;;;;;;3.97;1.97;;;13.20;99.90;;;;;;5057050;28;20475;-58
2022/09/26 03:37:51;;;;;;;5.63;2.00;;;13.20;99.90;;;;;;5057964;28;20496;-53
2022/09/26 03:40:22;;;;;;;3.10;1.97;;;13.20;99.90;;;;;;5056544;28;20444;-46
2022/09/26 03:42:50;;;;;;;3.13;2.00;;;13.30;99.90;;;;;;5056823;28;20441;-54
2022/09/26 03:45:18;;;;;;;2.17;1.97;;;13.30;99.90;;;;;;5057012;28;20448;-48
2022/09/26 03:47:49;;;;;;;2.30;1.93;;;13.30;99.90;;;;;;5056493;28;20464;-54
2022/09/26 03:50:18;;;;;;;2.03;1.73;;;13.30;99.90;;;;;;5043216;28;20485;-47
2022/09/26 03:52:44;;;;;;;4.73;2.60;;;13.30;99.90;;;;;;5036897;28;20488;-50
2022/09/26 03:55:16;;;;;;;5.80;2.40;;;13.30;99.90;;;;;;5036707;28;20544;-48
2022/09/26 03:57:43;;;;;;;2.47;1.63;;;13.30;99.90;;;;;;5035897;28;20894;-51
2022/09/26 04:00:11;;;;;;;3.53;2.13;;;13.30;99.90;;;;;;5036377;28;20448;-48
2022/09/26 04:02:37;;;;;;;4.50;2.23;;;13.30;99.90;;;;;;5037022;28;20488;-50
2022/09/26 04:05:05;;;;;;;3.20;2.23;;;13.30;99.90;;;;;;5036695;28;20461;-49
2022/09/26 04:07:33;;;;;;;3.10;2.30;;;13.30;99.90;;;;;;5036639;28;20461;-48
2022/09/26 04:09:59;;;;;;;2.67;2.10;;;13.30;99.90;;;;;;5036575;28;20445;-44
2022/09/26 04:12:27;;;;;;;3.00;2.20;;;13.30;99.90;;;;;;5036488;28;20437;-38
2022/09/26 04:14:54;;;;;;;3.40;2.17;;;13.30;99.90;;;;;;5036619;28;20483;-47
2022/09/26 04:17:23;;;;;;;4.50;2.43;;;13.30;99.90;;;;;;5037295;28;20457;-51
2022/09/26 04:19:53;;;;;;;3.43;2.50;;;13.30;99.90;;;;;;5036642;28;20475;-47
2022/09/26 04:22:20;;;;;;;2.93;2.00;;;13.30;99.90;;;;;;5036662;28;20771;-46
2022/09/26 04:24:52;;;;;;;5.30;2.23;;;13.30;99.90;;;;;;5036388;28;20461;-44
2022/09/26 04:27:19;;;;;;;2.60;2.00;;;13.30;99.90;;;;;;5036219;28;20515;-46
2022/09/26 04:29:47;;;;;;;3.50;2.60;;;13.30;99.90;;;;;;5035685;28;20528;-46
2022/09/26 04:32:14;;;;;;;7.57;2.80;;;13.30;99.90;;;;;;5036263;28;20509;-52
2022/09/26 04:34:42;;;;;;;2.60;2.10;;;13.30;99.90;;;;;;5036713;28;20508;-50
2022/09/26 04:37:08;;;;;;;5.33;2.17;;;13.20;99.90;;;;;;5037501;28;20469;-54
2022/09/26 04:39:36;;;;;;;2.20;1.93;;;13.20;99.90;;;;;;5037174;28;20480;-60
2022/09/26 04:42:03;;;;;;;4.73;3.63;;;13.10;99.90;;;;;;5037228;28;20520;-50
2022/09/26 04:44:31;;;;;;;2.40;2.07;;;13.10;99.90;;;;;;5037385;28;20534;-64
2022/09/26 04:46:59;;;;;;;2.33;2.13;;;13.10;99.90;;;;;;5037107;28;20456;-64
2022/09/26 04:49:28;;;;;;;4.93;2.60;;;13.10;99.90;;;;;;5037775;28;20448;-54
2022/09/26 04:51:57;;;;;;;5.37;3.40;;;13.10;99.90;;;;;;5037737;28;20456;-51
2022/09/26 04:54:25;;;;;;;4.00;2.70;;;13.10;99.90;;;;;;5036728;28;20496;-49
2022/09/26 04:56:55;;;;;;;3.50;2.50;;;13.10;99.90;;;;;;5037313;28;20480;-59
2022/09/26 04:59:21;;;;;;;2.60;2.20;;;13.10;99.90;;;;;;5037861;28;20441;-56
2022/09/26 05:01:48;;;;;;;2.70;2.20;;;13.10;99.90;;;;;;5037363;28;20445;-48
2022/09/26 05:04:23;;;;;;;3.40;2.70;;;13.00;99.90;;;;;;5037267;28;20445;-47
2022/09/26 05:06:50;;;;;;;10.77;2.90;;;13.00;99.90;;;;;;5036672;28;20413;-48
2022/09/26 05:09:16;;;;;;;3.90;3.13;;;13.00;99.90;;;;;;5039142;28;20433;-44
2022/09/26 05:11:43;;;;;;;3.40;2.60;;;12.90;99.90;;;;;;5041030;28;20438;-39
2022/09/26 05:14:10;;;;;;;7.80;2.80;;;12.90;99.90;;;;;;5040452;28;20480;-45
2022/09/26 05:16:38;;;;;;;3.73;2.90;;;12.90;99.90;;;;;;5040535;28;20441;-42
2022/09/26 05:19:08;;;;;;;7.50;2.90;;;12.80;99.90;;;;;;5041788;28;20508;-38
2022/09/26 05:21:36;;;;;;;7.80;2.87;;;12.80;99.90;;;;;;5048479;28;20468;-49
2022/09/26 05:26:49;;;;;;;7.47;3.27;;;12.70;99.90;;;;;;5047650;28;20403;-51
2022/09/26 05:29:18;;;;;;;3.67;3.23;;;12.70;99.90;;;;;;5042844;28;20468;-54
2022/09/26 05:31:45;;;;;;;4.67;2.73;;;12.60;99.90;;;;;;5048039;28;20455;-52
2022/09/26 05:34:14;;;;;;;5.77;2.70;;;12.60;99.90;;;;;;5052380;28;20535;-49
2022/09/26 05:36:42;;;;;;;4.10;2.90;;;12.60;99.90;;;;;;5047149;28;20474;-44
2022/09/26 05:40:55;;;;;;;4.90;2.37;;;12.60;99.90;;;;;;5037146;28;20496;-51
2022/09/26 05:41:57;;;;;;;4.20;2.70;;;12.60;99.90;;;;;;5055115;28;20454;-53
2022/09/26 05:44:24;;;;;;;3.70;2.63;;;12.50;99.90;;;;;;5051714;28;20460;-48
2022/09/26 05:46:54;;;;;;;3.03;2.33;;;12.50;99.90;;;;;;5045280;28;20459;-53
2022/09/26 05:49:25;;;;;;;3.53;2.80;;;12.50;99.90;;;;;;5046803;28;20437;-53
2022/09/26 05:51:54;;;;;;;3.73;2.90;;;12.60;99.90;;;;;;5045267;28;20455;-52
2022/09/26 05:54:20;;;;;;;3.33;2.20;;;12.60;99.90;;;;;;5046109;28;20499;-49
2022/09/26 05:56:47;;;;;;;4.60;3.40;;;12.60;99.90;;;;;;5045017;28;20441;-50
2022/09/26 05:59:14;;;;;;;6.47;3.00;;;12.60;99.90;;;;;;5044903;28;20475;-55
2022/09/26 06:01:41;;;;;;;4.93;2.83;;;12.70;99.90;;;;;;5046883;28;20468;-56
2022/09/26 06:04:07;;;;;;;5.40;3.10;;;12.70;99.90;;;;;;5045049;28;20521;-49
2022/09/26 06:06:34;;;;;;;7.00;4.43;;;12.70;99.90;;;;;;5047738;28;20432;-53
2022/09/26 06:09:05;;;;;;;7.63;3.07;;;12.70;99.90;;;;;;5040824;28;20445;-49
2022/09/26 06:11:32;;;;;;;5.10;3.50;;;12.80;99.90;;;;;;5036428;28;20506;-57
2022/09/26 06:14:01;;;;;;;4.40;2.33;;;12.80;99.90;;;;;;5037019;28;20755;-50
2022/09/26 06:16:30;;;;;;;8.83;3.03;;;12.90;99.90;;;;;;5036865;28;20504;-56
2022/09/26 06:18:57;;;;;;;5.10;2.60;;;12.90;99.90;;;;;;5037107;28;20457;-52
2022/09/26 06:21:24;;;;;;;4.60;2.73;;;13.00;99.90;;;;;;5035910;28;20465;-54
2022/09/26 06:23:51;;;;;;;4.87;3.13;;;13.00;99.90;;;;;;5037212;28;20505;-52
2022/09/26 06:26:21;;;;;;;4.47;3.30;;;13.10;99.90;;;;;;5036777;28;20469;-57
2022/09/26 06:28:49;;;;;;;3.90;3.00;;;13.20;99.90;;;;;;5037151;28;20481;-56
2022/09/26 06:31:18;;;;;;;4.30;3.13;;;13.20;99.90;;;;;;5036696;28;20465;-50
2022/09/26 06:33:50;;;;;;;7.80;3.57;;;13.20;99.90;;;;;;5046521;28;20500;-54
2022/09/26 06:36:16;;;;;;;2.73;2.40;;;13.30;99.90;;;;;;5050788;28;20464;-57
2022/09/26 06:38:43;;;;;;;3.03;2.60;;;13.30;99.90;;;;;;5044835;28;20500;-55
2022/09/26 06:41:12;;;;;;;4.50;3.37;;;13.40;99.90;;;;;;5045886;28;20434;-52
2022/09/26 06:43:40;;;;;;;5.53;3.53;;;13.40;99.90;;;;;;5045530;28;20472;-54
2022/09/26 06:46:08;;;;;;;4.10;3.00;;;13.40;99.90;;;;;;5047241;28;20532;-53
2022/09/26 06:48:35;;;;;;;6.40;3.97;;;13.50;99.90;;;;;;5047489;28;20543;-57
2022/09/26 06:51:02;;;;;;;3.57;3.23;;;13.50;99.90;;;;;;5042105;28;20456;-56
2022/09/26 06:53:29;;;;;;;5.87;3.60;;;13.50;99.90;;;;;;5047657;28;20429;-52
2022/09/26 06:55:57;;;;;;;7.47;3.67;;;13.60;99.90;;;;;;5040613;28;20472;-47
2022/09/26 06:58:24;;;;;;;5.57;3.80;;;13.60;99.90;;;;;;5036291;28;20451;-49
2022/09/26 07:00:53;;;;;;;6.67;4.10;;;13.70;99.90;;;;;;5036327;28;20445;-51
2022/09/26 07:03:21;;;;;;;7.50;4.30;;;13.70;99.90;;;;;;5035738;28;20469;-57
2022/09/26 07:05:50;;;;;;;11.00;4.00;;;13.80;99.90;;;;;;5036210;28;20505;-56
2022/09/26 07:08:17;;;;;;;5.60;3.50;;;13.80;99.90;;;;;;5036207;28;20488;-48
2022/09/26 07:10:46;;;;;;;6.67;3.80;;;13.80;99.90;;;;;;5035791;28;20456;-54
2022/09/26 07:13:14;;;;;;;10.67;4.10;;;13.80;99.90;;;;;;5035636;28;20457;-57
2022/09/26 07:15:43;;;;;;;7.00;3.80;;;13.80;99.90;;;;;;5035471;28;20839;-49
2022/09/26 07:18:12;;;;;;;5.70;4.07;;;13.80;99.90;;;;;;5036116;28;20463;-52
2022/09/26 07:20:41;;;;;;;13.60;3.77;;;13.80;99.90;;;;;;5035591;28;20441;-56
2022/09/26 07:23:12;;;;;;;9.13;3.90;;;13.90;99.90;;;;;;5035567;28;20441;-50
2022/09/26 07:25:44;;;;;;;6.27;4.13;;;13.90;99.90;;;;;;5035881;28;20483;-55
2022/09/26 07:28:11;;;;;;;7.90;4.27;;;14.00;99.90;;;;;;5034894;28;20456;-45
2022/09/26 07:30:37;;;;;;;4.80;3.50;;;14.00;99.90;;;;;;5047548;28;20533;-54
2022/09/26 07:33:05;;;;;;;4.37;3.50;;;14.00;99.90;;;;;;5049515;28;20445;-55
2022/09/26 07:35:35;;;;;;;6.53;3.50;;;14.00;99.90;;;;;;5044262;28;20582;-53
2022/09/26 07:38:03;;;;;;;7.40;4.07;;;14.00;99.90;;;;;;5046506;28;20459;-53
2022/09/26 07:40:31;;;;;;;7.10;4.60;;;14.10;99.90;;;;;;5047049;28;20453;-55
2022/09/26 07:42:59;;;;;;;9.60;4.00;;;14.10;99.90;;;;;;5044325;28;20898;-47
2022/09/26 07:50:56;;;;;;;8.07;3.50;;;14.30;99.90;;;;;;5035917;28;20464;-54
2022/09/26 07:53:24;;;;;;;5.13;3.00;;;14.40;99.90;;;;;;5035322;28;20484;-49
2022/09/26 07:56:09;;;;;;;3.83;2.60;;;14.50;99.90;;;;;;5036256;28;20487;-51
2022/09/26 07:58:38;;;;;;;4.63;3.00;;;14.50;99.90;;;;;;5025025;28;20530;-54
2022/09/26 08:01:06;;;;;;;4.20;3.00;;;14.60;99.90;;;;;;5022127;28;20425;-42
2022/09/26 08:03:33;;;;;;;10.53;3.60;;;14.80;99.90;;;;;;5034164;28;20531;-58
2022/09/26 08:06:02;;;;;;;5.17;2.57;;;14.80;99.90;;;;;;5043842;28;20613;-50
2022/09/26 08:08:30;;;;;;;3.50;2.03;;;14.90;99.90;;;;;;5050840;28;20496;-57
2022/09/26 08:10:57;;;;;;;3.10;2.03;;;14.90;99.90;;;;;;5036487;28;20457;-52
2022/09/26 08:13:25;;;;;;;4.00;2.13;;;15.00;99.90;;;;;;5047140;28;20451;-49
2022/09/26 08:15:52;;;;;;;2.77;2.23;;;15.20;99.90;;;;;;5041187;28;20541;-52
2022/09/26 08:18:20;;;;;;;4.90;2.03;;;15.30;99.90;;;;;;5036680;28;20437;-47
2022/09/26 08:20:47;;;;;;;7.23;2.20;;;15.50;99.90;;;;;;5037392;28;20429;-50
2022/09/26 08:23:16;;;;;;;4.00;2.60;;;15.40;99.90;;;;;;5039078;28;20480;-50
2022/09/26 08:25:44;;;;;;;5.00;2.57;;;15.90;99.90;;;;;;5038143;28;21144;-43
2022/09/26 08:28:12;;;;;;;3.70;2.60;;;16.90;99.90;;;;;;5039577;28;20456;-51
2022/09/26 08:30:39;;;;;;;2.50;2.23;;;18.20;99.90;;;;;;5036692;28;20494;-51
2022/09/26 08:33:07;;;;;;;2.63;2.27;;;19.50;99.90;;;;;;5035423;28;20472;-55
2022/09/26 08:35:37;;;;;;;4.80;2.20;;;20.90;99.90;;;;;;5035633;28;20488;-47
2022/09/26 08:38:04;;;;;;;6.90;2.13;;;22.20;99.90;;;;;;5035162;28;20461;-52
2022/09/26 08:40:38;;;;;;;2.10;1.90;;;22.60;99.90;;;;;;5035614;28;20461;-53
2022/09/26 08:43:19;;;;;;;3.20;2.83;;;22.40;99.90;;;;;;5034319;28;20441;-53
2022/09/26 08:48:50;;;;;;;2.63;2.10;;;23.60;94.90;;;;;;5033939;28;20447;-53
2022/09/26 08:51:28;;;;;;;4.83;2.23;;;24.40;92.90;;;;;;5035367;28;20509;-50
2022/09/26 08:54:00;;;;;;;2.23;1.77;;;25.20;90.00;;;;;;5045782;28;20859;-53
2022/09/26 08:56:33;;;;;;;3.20;1.90;;;25.10;84.30;;;;;;5039275;28;20468;-57
2022/09/26 08:59:03;;;;;;;3.33;2.03;;;24.40;82.30;;;;;;5031816;28;20443;-51
2022/09/26 09:01:35;;;;;;;2.33;1.90;;;24.10;83.00;;;;;;5034342;28;20540;-57
2022/09/26 09:04:07;;;;;;;6.10;1.60;;;23.30;83.10;;;;;;5032682;28;20485;-53
2022/09/26 09:06:36;;;;;;;3.73;1.60;;;23.10;85.50;;;;;;5034780;28;20457;-55
2022/09/26 09:09:04;;;;;;;3.83;1.80;;;23.30;82.90;;;;;;5033766;28;20459;-56
2022/09/26 09:11:53;;;;;;;3.23;2.00;;;22.80;81.40;;;;;;5032911;28;20517;-54
2022/09/26 09:14:38;;;;;;;6.60;1.73;;;22.30;84.50;;;;;;5033453;28;20432;-58
2022/09/26 09:17:17;;;;;;;5.37;2.10;;;22.30;84.00;;;;;;5035424;28;20465;-52
2022/09/26 09:19:52;;;;;;;4.57;2.60;;;22.10;86.40;;;;;;5048160;28;20451;-49
2022/09/26 09:22:45;;;;;;;1.80;1.70;;;21.80;89.80;;;;;;5050417;28;20462;-54
2022/09/26 09:25:19;;;;;;;3.43;1.77;;;21.40;90.50;;;;;;5026609;28;20492;-55
2022/09/26 09:28:18;;;;;;;2.70;2.10;;;20.80;92.10;;;;;;5046560;28;20438;-57
2022/09/26 09:30:48;;;;;;;13.60;1.83;;;20.20;94.80;;;;;;5051593;28;20409;-51
2022/09/26 09:33:19;;;;;;;1.87;1.53;;;20.30;95.40;;;;;;5050604;28;20463;-56
2022/09/26 09:35:51;;;;;;;4.40;1.50;;;21.00;94.40;;;;;;5043551;28;20479;-44
2022/09/26 09:38:26;;;;;;;1.87;1.50;;;22.10;91.10;;;;;;5034639;28;20484;-50
2022/09/26 09:41:00;;;;;;;3.70;1.60;;;23.10;87.80;;;;;;5034522;28;20516;-53
2022/09/26 09:43:36;;;;;;;3.10;1.47;;;23.50;81.40;;;;;;5035758;28;20444;-53
2022/09/26 09:46:05;;;;;;;1.20;1.00;;;23.90;78.60;;;;;;5035252;28;20521;-51
2022/09/26 09:48:33;;;;;;;1.80;1.30;;;24.60;75.10;;;;;;5051457;28;20539;-58
2022/09/26 09:51:28;;;;;;;3.70;1.40;;;25.10;72.40;;;;;;5052945;28;20492;-55
2022/09/26 09:54:14;;;;;;;2.70;1.67;;;25.50;71.80;;;;;;5050118;28;20500;-54
2022/09/26 09:56:50;;;;;;;5.03;1.50;;;25.90;69.70;;;;;;5058703;28;20482;-51
2022/09/26 09:59:49;;;;;;;2.53;1.20;;;26.30;65.40;;;;;;5057371;28;20455;-52
2022/09/26 10:02:27;;;;;;;1.70;1.30;;;26.20;64.70;;;;;;5058379;28;20467;-55
2022/09/26 10:05:05;;;;;;;2.77;1.30;;;25.90;64.10;;;;;;5057269;28;20440;-50
2022/09/26 10:07:31;;;;;;;2.37;1.20;;;26.00;64.00;;;;;;5044613;28;20504;-52
2022/09/26 10:09:58;;;;;;;3.13;1.80;;;25.80;63.80;;;;;;5040437;28;20452;-43
2022/09/26 10:12:29;;;;;;;1.70;1.40;;;25.40;68.40;;;;;;5036430;28;20453;-52
2022/09/26 10:15:02;;;;;;;1.37;1.17;;;24.90;64.10;;;;;;5042052;28;20496;-51
2022/09/26 10:17:28;;;;;;;1.20;1.00;;;24.60;66.00;;;;;;5046975;28;20425;-51
2022/09/26 10:19:56;;;;;;;1.60;1.10;;;25.10;66.20;;;;;;5039824;28;20437;-51
2022/09/26 10:22:31;;;;;;;3.93;1.90;;;25.50;63.20;;;;;;5041168;28;20512;-46
2022/09/26 10:25:05;;;;;;;5.93;1.40;;;26.00;67.30;;;;;;5034585;28;20429;-54
2022/09/26 10:27:36;;;;;;;3.50;1.80;;;26.40;58.90;;;;;;5044964;28;20451;-54
2022/09/26 10:30:20;;;;;;;5.00;3.50;;;25.60;59.70;;;;;;5057237;28;20420;-56
2022/09/26 10:32:52;;;;;;;3.50;2.37;;;25.10;62.00;;;;;;5058031;28;20547;-50
2022/09/26 10:35:22;;;;;;;1.77;1.40;;;25.00;62.90;;;;;;5056720;28;20448;-47
2022/09/26 10:37:59;;;;;;;3.00;1.53;;;24.40;63.30;;;;;;5054306;28;20494;-56
2022/09/26 10:40:46;;;;;;;2.50;1.63;;;23.70;65.90;;;;;;5054630;28;20523;-53
2022/09/26 10:43:27;;;;;;;1.67;1.43;;;23.00;64.00;;;;;;5055787;28;20458;-47
2022/09/26 10:46:02;;;;;;;2.97;1.83;;;22.20;66.80;;;;;;5040368;28;20468;-55
2022/09/26 10:48:42;;;;;;;5.33;1.50;;;21.60;69.20;;;;;;5032241;28;20436;-52
2022/09/26 10:51:10;;;;;;;4.53;1.60;;;21.20;70.60;;;;;;5038318;28;20456;-54
2022/09/26 10:53:40;;;;;;;1.47;1.20;;;20.80;72.40;;;;;;5037220;28;20469;-53
2022/09/26 10:56:13;;;;;;;3.70;1.67;;;20.40;73.40;;;;;;5037041;28;20480;-54
2022/09/26 10:58:43;;;;;;;2.73;1.87;;;20.00;74.60;;;;;;5032333;28;20469;-55
2022/09/26 11:01:20;;;;;;;7.23;3.53;;;19.60;77.10;;;;;;5041320;28;20475;-55
2022/09/26 11:03:49;;;;;;;2.03;1.70;;;19.40;79.30;;;;;;5036833;28;20513;-48
2022/09/26 11:06:23;;;;;;;2.43;1.50;;;19.10;80.20;;;;;;5035706;28;20434;-51
2022/09/26 11:08:55;;;;;;;4.70;1.60;;;18.90;81.30;;;;;;5036689;28;20484;-53
2022/09/26 11:11:22;;;;;;;2.30;1.20;;;18.70;82.50;;;;;;5036027;28;20457;-49
2022/09/26 11:14:02;;;;;;;1.20;0.80;;;18.60;84.40;;;;;;5038411;28;20509;-54
2022/09/26 11:16:49;;;;;;;5.53;1.27;;;18.30;85.60;;;;;;5043265;28;20452;-51
2022/09/26 11:19:25;;;;;;;1.20;1.00;;;18.20;89.10;;;;;;5039184;28;20517;-50
2022/09/26 11:21:58;;;;;;;2.80;1.10;;;18.00;90.00;;;;;;5036374;28;20429;-51
2022/09/26 11:24:36;;;;;;;3.47;1.20;;;18.00;90.70;;;;;;5042744;28;20426;-50
2022/09/26 11:27:14;;;;;;;2.20;1.80;;;17.90;91.10;;;;;;5042170;28;21156;-54
2022/09/26 11:29:47;;;;;;;6.83;1.83;;;17.90;92.10;;;;;;5044989;28;20445;-50
2022/09/26 11:32:24;;;;;;;1.30;1.10;;;17.90;92.70;;;;;;5045724;28;20489;-53
2022/09/26 11:34:52;;;;;;;1.67;1.30;;;17.70;93.30;;;;;;5035913;28;20534;-56
2022/09/26 11:38:04;;;;;;;3.03;1.27;;;18.00;93.10;;;;;;5036020;28;20456;-55
2022/09/26 11:40:58;;;;;;;1.93;1.33;;;18.00;92.80;;;;;;4961952;29;20491;-48
2022/09/26 11:43:37;;;;;;;1.10;1.00;;;18.00;92.70;;;;;;4967736;28;20968;-49
2022/09/26 11:46:23;;;;;;;1.87;1.20;;;18.00;92.90;;;;;;5024406;28;20424;-49
2022/09/26 11:49:09;;;;;;;2.60;1.50;;;18.00;92.20;;;;;;5036139;28;20433;-47
2022/09/26 11:51:49;;;;;;;1.90;1.10;;;18.00;93.00;;;;;;5036770;28;20437;-52
2022/09/26 11:54:32;;;;;;;1.87;1.50;;;18.10;92.40;;;;;;5036351;28;20453;-51
2022/09/26 11:57:16;;;;;;;2.03;1.20;;;18.10;92.90;;;;;;5036797;28;20525;-53
2022/09/26 12:00:01;;;;;;;1.80;1.27;;;18.10;93.60;;;;;;5037892;28;20410;-48
2022/09/26 12:03:02;;;;;;;1.60;1.23;;;18.10;94.20;;;;;;5037411;28;20409;-52
2022/09/26 12:05:44;;;;;;;2.50;1.30;;;18.20;94.80;;;;;;5036572;28;20526;-55
2022/09/26 12:08:24;;;;;;;2.90;1.20;;;18.10;95.40;;;;;;5036590;28;20469;-48
2022/09/26 12:11:00;;;;;;;2.47;1.40;;;18.00;95.40;;;;;;5036167;28;20450;-54
2022/09/26 12:13:37;;;;;;;2.50;1.07;;;18.00;95.90;;;;;;5035733;28;20433;-51
2022/09/26 12:16:14;;;;;;;1.83;1.10;;;17.80;96.30;;;;;;5035923;28;20561;-53
2022/09/26 12:18:53;;;;;;;1.30;1.20;;;17.80;96.60;;;;;;5034713;28;20431;-53
2022/09/26 12:21:31;;;;;;;1.83;1.40;;;17.80;97.00;;;;;;5035135;28;20528;-51
2022/09/26 12:24:06;;;;;;;3.87;1.33;;;17.90;97.10;;;;;;5035392;28;20440;-52
2022/09/26 12:26:43;;;;;;;2.67;1.83;;;18.00;97.30;;;;;;5035367;28;20409;-49
2022/09/26 12:29:31;;;;;;;1.40;1.00;;;18.30;97.40;;;;;;5035448;28;20429;-53
2022/09/26 12:32:22;;;;;;;2.33;1.73;;;18.60;97.30;;;;;;5035441;28;20409;-53
2022/09/26 12:35:17;;;;;;;1.70;1.30;;;18.70;96.20;;;;;;5035418;28;20471;-50
2022/09/26 12:38:27;;;;;;;3.83;2.97;;;18.60;96.70;;;;;;5034862;28;20469;-51
2022/09/26 12:41:13;;;;;;;2.80;1.50;;;18.60;96.30;;;;;;5035114;28;20813;-52
2022/09/26 12:43:56;;;;;;;3.47;1.63;;;18.40;96.60;;;;;;5035394;28;20555;-53
2022/09/26 12:46:58;;;;;;;2.80;1.30;;;18.30;96.90;;;;;;5035257;28;20429;-51
2022/09/26 12:49:43;;;;;;;2.37;1.37;;;18.40;96.60;;;;;;5035202;28;20460;-55
2022/09/26 12:52:22;;;;;;;2.43;1.00;;;18.40;94.70;;;;;;5035231;28;20428;-50
2022/09/26 12:55:14;;;;;;;1.30;1.00;;;18.40;94.10;;;;;;5034881;28;20469;-52
2022/09/26 12:57:51;;;;;;;1.87;1.37;;;18.30;94.00;;;;;;5035301;28;20464;-53
2022/09/26 13:00:25;;;;;;;5.77;1.20;;;18.30;95.00;;;;;;5034656;28;20449;-52
2022/09/26 13:03:36;;;;;;;1.50;1.40;;;18.30;95.20;;;;;;5035099;28;20449;-46
2022/09/26 13:06:24;;;;;;;3.57;2.00;;;18.30;95.60;;;;;;5033488;28;20447;-48
2022/09/26 13:08:59;;;;;;;1.50;1.40;;;18.20;95.90;;;;;;5033796;28;20460;-49
2022/09/26 13:11:34;;;;;;;1.83;1.00;;;18.10;96.00;;;;;;5034052;28;20443;-58
2022/09/26 13:14:25;;;;;;;2.13;1.40;;;18.00;96.80;;;;;;5035461;28;20421;-48
2022/09/26 13:17:05;;;;;;;1.57;1.30;;;18.00;97.00;;;;;;5034739;28;20473;-55
2022/09/26 13:19:35;;;;;;;4.07;1.40;;;17.90;96.70;;;;;;5035266;28;20447;-51
2022/09/26 13:22:05;;;;;;;4.50;1.87;;;17.90;97.10;;;;;;5033831;28;20521;-48
2022/09/26 13:24:46;;;;;;;1.63;1.13;;;17.80;97.90;;;;;;5035233;28;20429;-56
2022/09/26 13:27:20;;;;;;;2.17;1.40;;;17.80;97.90;;;;;;5035348;28;20460;-54